Time;durP1;ratioP1;P1;durP2;ratioP2;P2;SDS_P1;SDS_P2;PMS_P1;PMS_P2;Temp;Humidity;BMP_temperature;BMP_pressure;BME280_temperature;BME280_humidity;BME280_pressure;Samples;Min_cycle;Max_cycle;Signal;HPM_P1;HPM_P2
2023/09/29 00:00:31;;;;;;;3.03;1.57;;;;;;;20.60;100.00;99757.41;5085980;28;20213;-64
2023/09/29 00:02:59;;;;;;;5.20;1.67;;;;;;;20.64;100.00;99758.88;5073721;28;20667;-64
2023/09/29 00:05:27;;;;;;;2.27;1.80;;;;;;;20.69;100.00;99756.78;5084365;28;20195;-64
2023/09/29 00:07:53;;;;;;;1.97;1.70;;;;;;;20.65;100.00;99752.72;5085157;28;20227;-64
2023/09/29 00:10:21;;;;;;;1.37;1.20;;;;;;;20.69;100.00;99759.41;5083271;28;20192;-64
2023/09/29 00:12:49;;;;;;;4.27;1.63;;;;;;;20.77;100.00;99753.69;5087288;28;20258;-64
2023/09/29 00:15:18;;;;;;;1.50;1.47;;;;;;;20.83;100.00;99759.34;5081522;28;20307;-64
2023/09/29 00:17:44;;;;;;;1.60;1.60;;;;;;;20.83;100.00;99750.69;5073175;28;20638;-64
2023/09/29 00:20:22;;;;;;;1.57;1.57;;;;;;;20.83;100.00;99754.13;5085553;28;20217;-64
2023/09/29 00:22:48;;;;;;;1.43;1.43;;;;;;;20.84;100.00;99753.16;5088546;28;20646;-64
2023/09/29 00:25:15;;;;;;;2.17;1.30;;;;;;;20.83;100.00;99743.69;5085411;28;20673;-64
2023/09/29 00:27:42;;;;;;;1.60;1.50;;;;;;;20.81;100.00;99745.56;5074833;28;20211;-64
2023/09/29 00:30:11;;;;;;;1.27;1.27;;;;;;;20.71;100.00;99739.28;5072729;28;20197;-64
2023/09/29 00:32:39;;;;;;;1.67;1.50;;;;;;;20.68;100.00;99742.09;5074504;28;20230;-64
2023/09/29 00:35:09;;;;;;;1.17;1.17;;;;;;;20.64;100.00;99732.84;5073038;28;20595;-64
2023/09/29 00:37:37;;;;;;;2.80;1.80;;;;;;;20.71;100.00;99736.69;5077199;28;20284;-64
2023/09/29 00:40:11;;;;;;;1.50;1.40;;;;;;;20.69;100.00;99741.16;5075687;28;20260;-64
2023/09/29 00:42:38;;;;;;;1.40;1.40;;;;;;;20.67;100.00;99742.22;5088469;28;20286;-64
2023/09/29 00:45:05;;;;;;;1.63;1.53;;;;;;;20.59;100.00;99734.88;5078053;28;20214;-64
2023/09/29 00:47:32;;;;;;;1.40;1.40;;;;;;;20.52;100.00;99738.81;5075271;28;20671;-64
2023/09/29 00:49:59;;;;;;;1.63;1.57;;;;;;;20.47;100.00;99730.50;5090166;28;20706;-63
2023/09/29 00:52:27;;;;;;;1.53;1.43;;;;;;;20.43;100.00;99723.81;5076763;28;20197;-64
2023/09/29 00:54:56;;;;;;;1.73;1.70;;;;;;;20.37;100.00;99713.78;5076474;28;20196;-64
2023/09/29 00:57:23;;;;;;;1.63;1.53;;;;;;;20.35;100.00;99726.09;5074004;28;20204;-64
2023/09/29 00:59:51;;;;;;;3.90;1.67;;;;;;;20.31;100.00;99727.22;5078091;28;20707;-64
2023/09/29 01:02:19;;;;;;;1.60;1.50;;;;;;;20.23;100.00;99732.03;5085989;28;20202;-64
2023/09/29 01:04:47;;;;;;;1.60;1.50;;;;;;;20.17;100.00;99724.63;5076143;28;20222;-64
2023/09/29 01:07:14;;;;;;;1.70;1.60;;;;;;;20.25;100.00;99736.22;5071734;28;20200;-64
2023/09/29 01:09:41;;;;;;;1.40;1.30;;;;;;;20.27;100.00;99741.34;5092249;28;20197;-64
2023/09/29 01:12:10;;;;;;;2.33;1.87;;;;;;;20.24;100.00;99736.31;5091439;28;20198;-64
2023/09/29 01:14:37;;;;;;;1.53;1.43;;;;;;;20.22;100.00;99731.22;5092535;28;20235;-64
2023/09/29 01:17:04;;;;;;;1.20;1.20;;;;;;;20.23;100.00;99732.03;5089469;28;20220;-63
2023/09/29 01:19:32;;;;;;;3.30;1.30;;;;;;;20.19;100.00;99725.38;5092143;28;20270;-63
2023/09/29 01:21:58;;;;;;;1.43;1.27;;;;;;;20.13;100.00;99726.59;5092316;28;20204;-64
2023/09/29 01:24:26;;;;;;;1.30;1.30;;;;;;;20.07;100.00;99728.75;5092361;28;20244;-63
2023/09/29 01:26:53;;;;;;;1.30;1.30;;;;;;;20.00;100.00;99719.69;5091682;28;20632;-64
2023/09/29 01:29:20;;;;;;;1.23;1.23;;;;;;;19.97;100.00;99725.09;5091981;28;20710;-63
2023/09/29 01:31:49;;;;;;;1.93;1.77;;;;;;;19.91;100.00;99719.31;5091463;28;20196;-64
2023/09/29 01:34:16;;;;;;;1.07;1.07;;;;;;;19.87;100.00;99714.41;5091878;28;20195;-64
2023/09/29 01:36:43;;;;;;;1.23;1.23;;;;;;;19.81;100.00;99720.81;5092269;28;20613;-64
2023/09/29 01:39:11;;;;;;;5.03;1.43;;;;;;;19.78;100.00;99720.19;5091817;28;20195;-64
2023/09/29 01:41:43;;;;;;;1.97;1.80;;;;;;;19.78;100.00;99715.81;5091504;28;20620;-64
2023/09/29 01:44:10;;;;;;;1.40;1.40;;;;;;;19.80;100.00;99718.34;5090641;28;20193;-64
2023/09/29 01:46:39;;;;;;;1.60;1.50;;;;;;;19.78;100.00;99715.81;5090583;28;20191;-63
2023/09/29 01:49:06;;;;;;;1.43;1.43;;;;;;;19.75;100.00;99726.41;5091421;28;20226;-63
2023/09/29 01:51:33;;;;;;;1.90;1.80;;;;;;;19.73;100.00;99723.09;5091610;28;20204;-64
2023/09/29 01:54:00;;;;;;;5.63;1.50;;;;;;;19.72;100.00;99725.78;5090857;28;20204;-64
2023/09/29 01:56:26;;;;;;;1.97;1.40;;;;;;;19.66;100.00;99729.59;5091592;28;20896;-63
2023/09/29 01:58:54;;;;;;;2.90;1.53;;;;;;;19.64;100.00;99726.25;5091252;28;20200;-64
2023/09/29 02:01:21;;;;;;;3.33;1.70;;;;;;;19.63;100.00;99727.19;5090577;28;20203;-64
2023/09/29 02:03:49;;;;;;;1.30;1.20;;;;;;;19.60;100.00;99716.97;5090779;28;20199;-63
2023/09/29 02:06:17;;;;;;;5.93;1.83;;;;;;;19.60;100.00;99727.38;5091047;28;20287;-64
2023/09/29 02:08:44;;;;;;;1.40;1.30;;;;;;;19.60;100.00;99722.19;5090549;28;20223;-64
2023/09/29 02:11:10;;;;;;;1.93;1.83;;;;;;;19.63;100.00;99729.78;5090804;28;20202;-64
2023/09/29 02:13:38;;;;;;;1.27;1.23;;;;;;;19.58;100.00;99723.22;5091124;28;20195;-64
2023/09/29 02:16:14;;;;;;;1.07;1.07;;;;;;;19.74;100.00;99735.13;5090541;28;20215;-64
2023/09/29 02:18:41;;;;;;;1.80;1.70;;;;;;;19.78;100.00;99741.00;5089182;28;20681;-64
2023/09/29 02:21:08;;;;;;;1.17;1.03;;;;;;;19.84;100.00;99736.25;5091206;28;20275;-64
2023/09/29 02:23:35;;;;;;;1.40;1.30;;;;;;;19.91;100.00;99727.13;5091216;28;20223;-64
2023/09/29 02:26:02;;;;;;;1.13;1.13;;;;;;;19.95;100.00;99727.75;5090854;28;20196;-64
2023/09/29 02:28:30;;;;;;;1.50;1.50;;;;;;;19.96;100.00;99728.59;5089862;28;20198;-64
2023/09/29 02:30:57;;;;;;;3.80;1.20;;;;;;;19.96;100.00;99723.41;5091201;28;20624;-64
2023/09/29 02:33:26;;;;;;;3.87;1.30;;;;;;;19.96;100.00;99724.25;5090713;28;20209;-64
2023/09/29 02:35:53;;;;;;;1.23;1.13;;;;;;;19.90;100.00;99724.63;5090945;28;20235;-64
2023/09/29 02:38:20;;;;;;;1.63;1.53;;;;;;;19.90;100.00;99724.63;5090794;28;20606;-64
2023/09/29 02:40:47;;;;;;;1.40;1.30;;;;;;;19.86;100.00;99726.59;5090771;28;20665;-64
2023/09/29 02:43:13;;;;;;;1.87;1.77;;;;;;;19.82;100.00;99727.72;5090855;28;20676;-64
2023/09/29 02:45:40;;;;;;;1.37;1.30;;;;;;;19.74;100.00;99727.34;5090822;28;20209;-64
2023/09/29 02:48:07;;;;;;;1.93;1.83;;;;;;;19.70;100.00;99736.28;5090520;28;20199;-63
2023/09/29 02:50:36;;;;;;;2.20;1.50;;;;;;;19.65;100.00;99733.13;5089175;28;20195;-64
2023/09/29 02:53:07;;;;;;;1.13;1.10;;;;;;;19.58;100.00;99724.00;5090716;28;20208;-63
2023/09/29 02:55:34;;;;;;;1.40;1.30;;;;;;;19.49;100.00;99719.38;5090419;28;20291;-64
2023/09/29 02:58:04;;;;;;;1.50;1.40;;;;;;;19.53;100.00;99723.47;5090029;28;20250;-64
2023/09/29 03:00:31;;;;;;;1.20;1.20;;;;;;;19.49;100.00;99727.19;5090026;28;20278;-63
2023/09/29 03:02:58;;;;;;;1.53;1.53;;;;;;;19.45;100.00;99728.28;5090340;28;20204;-64
2023/09/29 03:05:26;;;;;;;1.60;1.50;;;;;;;19.40;100.00;99719.97;5090848;28;20210;-64
2023/09/29 03:07:55;;;;;;;3.67;1.20;;;;;;;19.37;100.00;99720.13;5090021;28;20717;-64
2023/09/29 03:10:23;;;;;;;1.27;1.23;;;;;;;19.34;100.00;99709.91;5070352;28;20192;-63
2023/09/29 03:12:50;;;;;;;1.70;1.70;;;;;;;19.36;100.00;99719.28;5073828;28;20223;-64
2023/09/29 03:15:16;;;;;;;1.20;1.20;;;;;;;19.37;100.00;99725.31;5081096;28;20207;-64
2023/09/29 03:17:44;;;;;;;1.40;1.30;;;;;;;19.32;100.00;99717.78;5073390;28;20314;-63
2023/09/29 03:20:12;;;;;;;1.53;0.93;;;;;;;19.35;100.00;99716.78;5080294;28;20252;-64
2023/09/29 03:22:39;;;;;;;3.73;1.10;;;;;;;19.39;99.36;99710.44;5079493;28;20198;-64
2023/09/29 03:25:10;;;;;;;1.77;1.67;;;;;;;19.48;97.85;99720.34;5079560;28;20196;-64
2023/09/29 03:27:38;;;;;;;1.87;1.77;;;;;;;19.50;98.05;99721.06;5072448;28;20232;-64
2023/09/29 03:30:07;;;;;;;1.33;1.33;;;;;;;19.53;97.61;99720.88;5078540;28;20212;-64
2023/09/29 03:32:34;;;;;;;1.20;1.17;;;;;;;19.55;97.73;99719.00;5080565;28;20204;-64
2023/09/29 03:35:04;;;;;;;1.47;1.47;;;;;;;19.57;97.47;99717.16;5072861;28;20196;-64
2023/09/29 03:37:35;;;;;;;1.10;1.00;;;;;;;19.60;97.30;99716.97;5085346;28;20277;-66
2023/09/29 03:40:06;;;;;;;2.93;0.80;;;;;;;19.62;96.72;99717.69;5078116;28;20192;-64
2023/09/29 03:42:35;;;;;;;1.20;1.20;;;;;;;19.63;96.57;99711.56;5076987;28;20211;-64
2023/09/29 03:45:05;;;;;;;0.90;0.90;;;;;;;19.62;96.73;99715.09;5083983;28;20207;-64
2023/09/29 03:47:33;;;;;;;1.47;1.40;;;;;;;19.63;96.15;99711.56;5082440;28;20619;-64
2023/09/29 03:50:00;;;;;;;1.50;1.33;;;;;;;19.64;96.53;99713.25;5085348;28;20231;-64
2023/09/29 03:52:26;;;;;;;2.40;1.20;;;;;;;19.65;96.15;99714.91;5086049;28;20204;-64
2023/09/29 03:54:53;;;;;;;1.67;1.57;;;;;;;19.65;95.90;99714.06;5089986;28;20204;-64
2023/09/29 03:57:20;;;;;;;1.27;1.27;;;;;;;19.65;95.86;99714.91;5077251;28;20587;-64
2023/09/29 03:59:48;;;;;;;1.67;1.37;;;;;;;19.66;95.73;99720.94;5082274;28;20200;-64
2023/09/29 04:02:16;;;;;;;0.87;0.87;;;;;;;19.66;95.46;99716.59;5092102;28;20587;-64
2023/09/29 04:04:43;;;;;;;1.53;1.40;;;;;;;19.65;95.35;99714.91;5075139;28;20225;-64
2023/09/29 04:07:09;;;;;;;1.00;1.00;;;;;;;19.62;94.53;99703.84;5081528;28;20630;-64
2023/09/29 04:09:36;;;;;;;1.33;1.23;;;;;;;19.65;94.44;99712.31;5092546;28;20599;-64
2023/09/29 04:12:03;;;;;;;1.07;1.07;;;;;;;19.67;94.01;99704.41;5093153;28;20562;-65
2023/09/29 04:14:30;;;;;;;1.33;1.23;;;;;;;19.66;94.04;99698.38;5092559;28;20672;-65
2023/09/29 04:16:58;;;;;;;3.97;1.80;;;;;;;19.66;94.02;99700.97;5092173;28;20713;-64
2023/09/29 04:19:25;;;;;;;1.30;1.30;;;;;;;19.61;94.07;99700.41;5092402;28;20193;-64
2023/09/29 04:21:52;;;;;;;1.40;1.40;;;;;;;19.70;93.77;99702.47;5091585;28;20199;-65
2023/09/29 04:24:19;;;;;;;1.20;1.20;;;;;;;19.69;94.23;99697.34;5091268;28;20203;-65
2023/09/29 04:26:46;;;;;;;1.20;1.20;;;;;;;19.67;94.56;99694.84;5092164;28;20229;-65
2023/09/29 04:29:12;;;;;;;1.27;1.27;;;;;;;19.67;94.80;99700.06;5091445;28;20203;-65
2023/09/29 04:31:39;;;;;;;1.67;1.67;;;;;;;19.69;94.60;99706.00;5093105;28;20579;-65
2023/09/29 04:34:07;;;;;;;1.00;1.00;;;;;;;19.66;93.89;99700.97;5093299;28;20210;-65
2023/09/29 04:36:34;;;;;;;1.60;1.50;;;;;;;19.67;93.35;99699.22;5092911;28;20216;-65
2023/09/29 04:39:01;;;;;;;1.23;1.23;;;;;;;19.70;93.45;99712.03;5093140;28;20214;-65
2023/09/29 04:41:29;;;;;;;1.40;1.40;;;;;;;19.70;93.45;99705.06;5091544;28;20202;-65
2023/09/29 04:43:56;;;;;;;1.33;1.27;;;;;;;19.67;93.89;99702.66;5092807;28;20195;-65
2023/09/29 04:46:23;;;;;;;1.23;1.13;;;;;;;19.71;93.68;99704.13;5092821;28;20195;-65
2023/09/29 04:48:53;;;;;;;1.00;1.00;;;;;;;19.71;93.85;99709.31;5092328;28;20204;-65
2023/09/29 04:51:21;;;;;;;1.27;1.27;;;;;;;19.76;93.99;99714.25;5092100;28;20203;-65
2023/09/29 04:53:48;;;;;;;1.20;1.20;;;;;;;19.76;94.33;99707.28;5092382;28;20199;-65
2023/09/29 04:56:15;;;;;;;1.53;1.43;;;;;;;19.73;93.88;99717.88;5092352;28;20801;-65
2023/09/29 04:58:41;;;;;;;1.27;1.27;;;;;;;19.74;94.48;99718.72;5091826;28;20682;-65
2023/09/29 05:01:08;;;;;;;0.90;0.90;;;;;;;19.74;94.13;99709.13;5091484;28;20615;-65
2023/09/29 05:03:35;;;;;;;4.77;1.40;;;;;;;19.76;94.64;99722.88;5091887;28;20211;-65
2023/09/29 05:06:02;;;;;;;1.53;1.53;;;;;;;19.76;94.43;99712.47;5092151;28;20199;-65
2023/09/29 05:08:31;;;;;;;2.40;1.07;;;;;;;19.82;94.27;99712.09;5092068;28;20218;-65
2023/09/29 05:10:58;;;;;;;1.93;1.83;;;;;;;19.80;94.25;99713.97;5091695;28;20195;-65
2023/09/29 05:13:28;;;;;;;1.43;1.37;;;;;;;19.81;94.29;99715.63;5092272;28;20672;-65
2023/09/29 05:15:54;;;;;;;1.20;1.20;;;;;;;19.78;94.91;99715.81;5091265;28;20691;-65
2023/09/29 05:18:23;;;;;;;3.83;1.50;;;;;;;19.81;95.16;99710.41;5091927;28;20220;-65
2023/09/29 05:20:50;;;;;;;1.70;1.60;;;;;;;19.83;94.97;99712.94;5089156;28;20207;-65
2023/09/29 05:23:17;;;;;;;5.30;1.67;;;;;;;19.85;95.84;99716.25;5091796;28;20468;-65
2023/09/29 05:25:46;;;;;;;3.70;1.53;;;;;;;19.92;95.11;99713.19;5088726;28;20686;-65
2023/09/29 05:28:13;;;;;;;1.80;1.70;;;;;;;19.98;94.70;99716.31;5087609;28;20254;-65
2023/09/29 05:30:43;;;;;;;1.30;1.20;;;;;;;19.97;94.95;99717.28;5087203;28;20202;-66
2023/09/29 05:33:10;;;;;;;1.77;1.67;;;;;;;19.99;94.46;99712.78;5090798;28;20204;-65
2023/09/29 05:35:37;;;;;;;1.33;1.33;;;;;;;20.01;94.02;99724.78;5091001;28;20199;-65
2023/09/29 05:38:04;;;;;;;3.00;2.53;;;;;;;20.10;92.42;99723.34;5091069;28;20207;-65
2023/09/29 05:40:31;;;;;;;1.90;1.80;;;;;;;20.18;91.78;99726.31;5090873;28;20232;-66
2023/09/29 05:42:59;;;;;;;4.33;3.57;;;;;;;20.30;90.86;99725.53;5091309;28;20206;-66
2023/09/29 05:45:26;;;;;;;2.80;2.70;;;;;;;20.45;90.24;99732.38;5092077;28;20209;-66
2023/09/29 05:47:53;;;;;;;3.50;3.30;;;;;;;20.56;89.42;99729.88;5090538;28;20668;-65
2023/09/29 05:50:19;;;;;;;2.60;2.50;;;;;;;20.70;89.74;99737.63;5087414;28;20201;-64
2023/09/29 05:52:47;;;;;;;1.90;1.80;;;;;;;20.81;87.63;99740.34;5090256;28;20687;-66
2023/09/29 05:55:14;;;;;;;4.57;2.03;;;;;;;20.92;88.67;99743.06;5090588;28;20540;-66
2023/09/29 05:57:42;;;;;;;2.37;2.17;;;;;;;21.15;87.70;99743.31;5091173;28;20241;-65
2023/09/29 06:00:13;;;;;;;1.50;1.40;;;;;;;21.36;85.23;99736.63;5090516;28;20202;-66
2023/09/29 06:02:40;;;;;;;1.73;1.63;;;;;;;21.50;86.07;99739.13;5087342;28;20238;-64
2023/09/29 06:05:07;;;;;;;1.80;1.70;;;;;;;21.67;84.29;99736.19;5090689;28;20696;-64
2023/09/29 06:07:34;;;;;;;1.97;1.87;;;;;;;21.82;83.34;99735.09;5089488;28;20672;-66
2023/09/29 06:10:01;;;;;;;1.43;1.43;;;;;;;22.01;83.06;99732.03;5076468;28;20262;-65
2023/09/29 06:12:28;;;;;;;3.20;3.00;;;;;;;22.22;81.58;99742.72;5078105;28;20201;-65
2023/09/29 06:14:54;;;;;;;2.23;2.13;;;;;;;22.33;79.78;99732.28;5070343;28;20326;-65
2023/09/29 06:17:23;;;;;;;1.97;1.53;;;;;;;22.40;78.41;99731.75;5078719;28;20216;-65
2023/09/29 06:19:50;;;;;;;1.10;1.10;;;;;;;22.46;78.15;99731.28;5075218;28;20222;-64
2023/09/29 06:22:17;;;;;;;2.00;1.90;;;;;;;22.56;78.03;99739.28;5074335;28;20203;-64
2023/09/29 06:24:45;;;;;;;1.20;1.17;;;;;;;22.51;75.51;99728.34;5072755;28;20211;-65
2023/09/29 06:27:12;;;;;;;8.70;1.43;;;;;;;22.63;77.38;99737.88;5074472;28;20256;-65
2023/09/29 06:29:39;;;;;;;1.20;1.20;;;;;;;22.74;75.08;99745.81;5068554;28;20208;-65
2023/09/29 06:32:08;;;;;;;1.60;1.13;;;;;;;22.92;75.81;99736.56;5070033;28;20240;-65
2023/09/29 06:34:37;;;;;;;0.80;0.80;;;;;;;23.00;74.41;99738.63;5072892;28;20310;-65
2023/09/29 06:37:04;;;;;;;1.73;1.63;;;;;;;22.97;73.71;99737.03;5068074;28;20710;-64
2023/09/29 06:39:31;;;;;;;1.10;1.10;;;;;;;23.08;73.71;99732.78;5072265;28;20253;-64
2023/09/29 06:41:57;;;;;;;1.40;1.40;;;;;;;23.12;72.76;99734.22;5078182;28;20207;-65
2023/09/29 06:44:24;;;;;;;0.80;0.80;;;;;;;23.17;71.48;99742.53;5067408;28;20211;-65
2023/09/29 06:46:51;;;;;;;6.47;1.30;;;;;;;23.23;71.89;99736.88;5066434;28;20617;-61
2023/09/29 06:49:18;;;;;;;1.70;1.60;;;;;;;23.34;71.60;99744.69;5075444;28;20683;-61
2023/09/29 06:51:46;;;;;;;0.93;0.90;;;;;;;23.46;72.20;99739.38;5077518;28;20203;-61
2023/09/29 06:54:13;;;;;;;2.10;0.80;;;;;;;23.61;68.95;99753.06;5063719;28;20200;-61
2023/09/29 06:56:39;;;;;;;0.90;0.90;;;;;;;23.67;69.10;99747.34;5065134;28;20204;-61
2023/09/29 06:59:07;;;;;;;1.53;1.00;;;;;;;23.86;69.59;99752.81;5070148;28;20204;-62
2023/09/29 07:01:34;;;;;;;1.10;1.10;;;;;;;23.92;66.53;99747.06;5066104;28;20649;-62
2023/09/29 07:04:01;;;;;;;3.07;1.37;;;;;;;23.95;67.99;99748.59;5065706;28;20279;-61
2023/09/29 07:06:28;;;;;;;1.33;1.20;;;;;;;24.07;66.82;99754.66;5069985;28;20204;-62
2023/09/29 07:08:56;;;;;;;5.40;1.07;;;;;;;24.10;66.64;99743.94;5068560;28;20227;-62
2023/09/29 07:11:23;;;;;;;0.90;0.83;;;;;;;24.20;64.91;99739.66;5068138;28;20210;-61
2023/09/29 07:13:49;;;;;;;0.90;0.90;;;;;;;24.31;64.07;99737.81;5075388;28;20207;-62
2023/09/29 07:16:18;;;;;;;0.70;0.70;;;;;;;24.47;62.57;99732.16;5071968;28;20200;-62
2023/09/29 07:18:45;;;;;;;0.83;0.83;;;;;;;24.55;62.18;99733.22;5071081;28;20718;-62
2023/09/29 07:21:11;;;;;;;0.93;0.93;;;;;;;24.63;61.77;99736.97;5071956;28;20630;-61
2023/09/29 07:23:38;;;;;;;1.10;1.10;;;;;;;24.78;62.86;99736.53;5074056;28;20694;-61
2023/09/29 07:26:06;;;;;;;1.53;0.80;;;;;;;24.97;60.33;99736.69;5073303;28;20204;-61
2023/09/29 07:28:34;;;;;;;0.87;0.87;;;;;;;25.21;60.63;99735.56;5069037;28;20231;-62
2023/09/29 07:31:00;;;;;;;0.80;0.80;;;;;;;25.37;60.90;99742.00;5070704;28;20200;-62
2023/09/29 07:33:27;;;;;;;1.00;0.90;;;;;;;25.41;60.50;99732.91;5072164;28;20204;-62
2023/09/29 07:35:54;;;;;;;2.10;0.80;;;;;;;25.46;57.96;99738.56;5075576;28;20307;-61
2023/09/29 07:38:21;;;;;;;0.80;0.80;;;;;;;25.54;57.98;99745.84;5069904;28;20228;-60
2023/09/29 07:40:48;;;;;;;1.50;1.40;;;;;;;25.67;57.47;99746.44;5075712;28;20207;-61
2023/09/29 07:43:16;;;;;;;1.20;1.10;;;;;;;25.73;56.32;99743.25;5069782;28;20203;-61
2023/09/29 07:45:44;;;;;;;0.87;0.87;;;;;;;25.76;55.67;99742.16;5083917;28;20207;-62
2023/09/29 07:48:11;;;;;;;3.00;0.80;;;;;;;25.72;55.02;99744.22;5085826;28;20712;-61
2023/09/29 07:50:38;;;;;;;0.80;0.80;;;;;;;25.68;53.37;99748.09;5071802;28;20577;-61
2023/09/29 07:53:05;;;;;;;0.77;0.77;;;;;;;25.56;53.87;99743.88;5082052;28;20207;-62
2023/09/29 07:55:32;;;;;;;1.83;0.80;;;;;;;25.52;54.58;99743.34;5076458;28;20223;-61
2023/09/29 07:57:58;;;;;;;0.77;0.77;;;;;;;25.49;53.90;99742.75;5085240;28;20284;-62
2023/09/29 08:00:27;;;;;;;0.50;0.50;;;;;;;25.53;54.13;99738.91;5079997;28;20226;-62
2023/09/29 08:02:54;;;;;;;2.47;0.60;;;;;;;25.66;54.31;99743.91;5077942;28;20212;-62
2023/09/29 08:05:21;;;;;;;0.53;0.53;;;;;;;25.69;53.16;99747.13;5078416;28;20200;-61
2023/09/29 08:07:48;;;;;;;2.07;0.90;;;;;;;25.77;52.13;99747.28;5089137;28;20322;-61
2023/09/29 08:10:15;;;;;;;1.40;0.80;;;;;;;25.86;50.96;99741.22;5076939;28;20203;-61
2023/09/29 08:12:41;;;;;;;0.63;0.60;;;;;;;26.00;54.40;99738.22;5080503;28;20204;-61
2023/09/29 08:15:11;;;;;;;1.17;1.00;;;;;;;26.18;50.62;99742.81;5084709;28;20644;-61
2023/09/29 08:17:39;;;;;;;0.90;0.90;;;;;;;26.28;50.40;99741.88;5081223;28;20706;-62
2023/09/29 08:20:08;;;;;;;0.60;0.60;;;;;;;26.40;48.30;99732.88;5072947;28;20579;-62
2023/09/29 08:22:33;;;;;;;0.80;0.80;;;;;;;26.59;49.13;99732.88;5078691;28;20204;-63
2023/09/29 08:25:03;;;;;;;0.90;0.90;;;;;;;26.76;48.18;99739.22;5074244;28;20200;-62
2023/09/29 08:27:30;;;;;;;0.60;0.60;;;;;;;26.85;47.14;99735.78;5079318;28;20196;-62
2023/09/29 08:29:56;;;;;;;2.13;0.70;;;;;;;27.02;46.34;99737.69;5071797;28;20215;-62
2023/09/29 08:32:23;;;;;;;0.60;0.60;;;;;;;27.24;46.11;99740.97;5068646;28;20200;-62
2023/09/29 08:34:51;;;;;;;1.00;1.00;;;;;;;27.38;44.78;99737.84;5072377;28;20200;-61
2023/09/29 08:37:18;;;;;;;0.60;0.60;;;;;;;27.58;44.33;99726.28;5070277;28;20215;-62
2023/09/29 08:39:45;;;;;;;0.53;0.53;;;;;;;27.76;43.10;99727.16;5078575;28;20674;-62
2023/09/29 08:42:23;;;;;;;0.43;0.43;;;;;;;27.90;43.80;99731.09;5069007;28;20215;-62
2023/09/29 08:44:50;;;;;;;0.77;0.77;;;;;;;27.92;43.18;99711.53;5067629;28;20204;-63
2023/09/29 08:47:23;;;;;;;0.73;0.70;;;;;;;28.09;43.74;99729.19;5068649;28;20283;-63
2023/09/29 08:49:51;;;;;;;1.13;0.90;;;;;;;28.13;43.99;99733.19;5069356;28;20212;-62
2023/09/29 08:52:20;;;;;;;0.70;0.70;;;;;;;28.14;42.72;99736.66;5070319;28;20199;-61
2023/09/29 08:54:49;;;;;;;0.50;0.50;;;;;;;28.14;43.47;99737.47;5069197;28;20228;-62
2023/09/29 08:57:17;;;;;;;0.57;0.57;;;;;;;28.24;40.49;99741.88;5070865;28;20218;-62
2023/09/29 08:59:44;;;;;;;1.20;0.83;;;;;;;28.26;41.82;99740.72;5070193;28;20208;-62
2023/09/29 09:02:11;;;;;;;0.70;0.70;;;;;;;28.15;40.03;99736.50;5072849;28;20207;-61
2023/09/29 09:04:38;;;;;;;0.90;0.90;;;;;;;28.10;40.91;99741.41;5079404;28;20204;-62
2023/09/29 09:07:06;;;;;;;0.80;0.80;;;;;;;28.10;42.01;99738.78;5071421;28;20208;-62
2023/09/29 09:09:35;;;;;;;1.17;0.80;;;;;;;28.01;38.95;99742.25;5089806;28;20223;-61
2023/09/29 09:12:02;;;;;;;0.70;0.70;;;;;;;28.06;38.55;99744.47;5090584;28;20199;-62
2023/09/29 09:14:39;;;;;;;0.70;0.70;;;;;;;28.00;37.64;99748.53;5090703;28;20203;-62
2023/09/29 09:17:07;;;;;;;0.70;0.70;;;;;;;28.00;37.65;99745.88;5090589;28;20203;-62
2023/09/29 09:19:42;;;;;;;0.70;0.70;;;;;;;28.02;37.28;99749.19;5090954;28;20226;-61
2023/09/29 09:22:16;;;;;;;0.70;0.70;;;;;;;28.02;37.96;99743.91;5083821;28;20203;-62
2023/09/29 09:24:43;;;;;;;0.80;0.80;;;;;;;28.03;37.61;99750.84;5088677;28;20576;-62
2023/09/29 09:27:10;;;;;;;0.73;0.73;;;;;;;28.00;39.23;99745.88;5089305;28;20252;-62
2023/09/29 09:29:41;;;;;;;1.90;0.80;;;;;;;27.97;37.28;99740.91;5089468;28;20265;-62
2023/09/29 09:32:10;;;;;;;2.30;1.00;;;;;;;28.01;39.46;99744.88;5086452;28;20235;-61
2023/09/29 09:34:39;;;;;;;2.67;1.17;;;;;;;28.04;39.48;99741.97;5088384;28;20239;-62
2023/09/29 09:37:07;;;;;;;1.07;0.87;;;;;;;28.15;38.12;99741.78;5086929;28;20199;-62
2023/09/29 09:39:35;;;;;;;0.87;0.87;;;;;;;28.21;37.78;99734.25;5088505;28;20681;-61
2023/09/29 09:42:05;;;;;;;2.40;0.80;;;;;;;28.43;37.87;99737.28;5086848;28;20196;-62
2023/09/29 09:44:34;;;;;;;0.90;0.90;;;;;;;28.48;37.67;99720.97;5088672;28;20212;-62
2023/09/29 09:47:01;;;;;;;0.97;0.97;;;;;;;28.67;36.51;99736.66;5087497;28;20290;-62
2023/09/29 09:49:36;;;;;;;0.90;0.90;;;;;;;28.78;35.91;99725.88;5088043;28;20234;-62
2023/09/29 09:52:07;;;;;;;1.17;0.87;;;;;;;28.96;35.66;99724.00;5086030;28;20195;-61
2023/09/29 09:54:45;;;;;;;1.40;1.17;;;;;;;29.03;35.32;99732.97;5087421;28;20211;-63
2023/09/29 09:57:13;;;;;;;1.05;0.70;;;;;;;29.11;34.85;99735.63;5088278;28;20230;-62
2023/09/29 09:59:44;;;;;;;0.82;0.82;;;;;;;29.18;37.52;99728.75;5085350;28;20220;-62
2023/09/29 10:02:11;;;;;;;0.70;0.70;;;;;;;29.32;37.35;99729.19;5084868;28;20667;-62
2023/09/29 10:04:39;;;;;;;0.70;0.70;;;;;;;29.33;36.53;99730.84;5087511;28;20230;-62
2023/09/29 10:07:07;;;;;;;0.68;0.68;;;;;;;29.43;35.77;99728.91;5085864;28;20200;-62
2023/09/29 10:09:45;;;;;;;0.77;0.77;;;;;;;29.51;34.43;99721.00;5088597;28;20652;-62
2023/09/29 10:12:26;;;;;;;1.23;1.15;;;;;;;29.62;35.31;99715.47;5084888;28;20196;-62
2023/09/29 10:14:53;;;;;;;1.30;1.20;;;;;;;29.67;33.82;99718.44;5085773;28;20206;-63
2023/09/29 10:17:21;;;;;;;1.40;1.05;;;;;;;29.73;33.50;99712.50;5085477;28;20261;-62
2023/09/29 10:19:51;;;;;;;0.90;0.90;;;;;;;29.75;31.36;99720.28;5084812;28;20288;-62
2023/09/29 10:22:28;;;;;;;1.30;0.90;;;;;;;29.76;32.79;99712.19;5084887;28;20563;-63
2023/09/29 10:24:57;;;;;;;1.45;1.10;;;;;;;29.70;33.54;99704.91;5084164;28;20199;-63
2023/09/29 10:27:30;;;;;;;3.72;1.15;;;;;;;29.84;35.92;99693.75;5090121;28;20674;-62
2023/09/29 10:30:13;;;;;;;0.60;0.60;;;;;;;29.88;33.01;99700.38;5080588;28;20671;-62
2023/09/29 10:32:40;;;;;;;0.90;0.90;;;;;;;29.82;31.94;99694.88;5085809;28;20685;-63
2023/09/29 10:35:11;;;;;;;0.70;0.70;;;;;;;29.92;32.54;99685.81;5087081;28;20216;-63
2023/09/29 10:37:41;;;;;;;0.80;0.80;;;;;;;30.01;31.39;99690.16;5087717;28;20587;-62
2023/09/29 10:40:28;;;;;;;1.15;1.05;;;;;;;30.09;31.56;99687.50;5088449;28;20276;-62
2023/09/29 10:42:56;;;;;;;4.22;0.80;;;;;;;30.16;31.03;99677.94;5087272;28;20206;-62
2023/09/29 10:45:29;;;;;;;1.30;1.30;;;;;;;30.18;31.47;99673.28;5088955;28;20233;-62
2023/09/29 10:48:01;;;;;;;3.83;0.85;;;;;;;30.26;29.80;99676.94;5088481;28;20199;-63
2023/09/29 10:50:28;;;;;;;0.80;0.80;;;;;;;30.37;30.19;99676.63;5085190;28;20195;-62
2023/09/29 10:52:55;;;;;;;1.30;0.80;;;;;;;30.40;30.61;99674.50;5086473;28;20206;-62
2023/09/29 10:55:24;;;;;;;1.10;1.10;;;;;;;30.43;29.94;99670.69;5085696;28;20226;-70
2023/09/29 10:57:51;;;;;;;0.68;0.65;;;;;;;30.42;30.30;99672.50;5087087;28;20199;-64
2023/09/29 11:00:19;;;;;;;0.70;0.70;;;;;;;30.35;29.87;99660.06;5085293;28;20219;-64
2023/09/29 11:02:49;;;;;;;0.90;0.90;;;;;;;30.30;30.13;99662.41;5088750;28;20552;-63
2023/09/29 11:05:16;;;;;;;1.33;1.33;;;;;;;30.23;30.40;99661.41;5084418;28;20210;-64
2023/09/29 11:07:48;;;;;;;3.40;0.85;;;;;;;30.20;29.20;99658.09;5087754;28;20229;-63
2023/09/29 11:10:17;;;;;;;1.52;0.80;;;;;;;30.25;29.71;99654.09;5087340;28;20540;-64
2023/09/29 11:12:47;;;;;;;0.68;0.68;;;;;;;30.31;32.26;99658.75;5084543;28;20635;-63
2023/09/29 11:15:14;;;;;;;1.25;1.17;;;;;;;30.33;30.06;99656.78;5087925;28;20214;-64
2023/09/29 11:17:48;;;;;;;0.70;0.70;;;;;;;30.31;29.27;99656.13;5084015;28;20663;-63
2023/09/29 11:20:25;;;;;;;0.73;0.73;;;;;;;30.40;31.29;99660.44;5086512;28;20598;-63
2023/09/29 11:23:01;;;;;;;0.98;0.98;;;;;;;30.20;30.19;99658.09;5085649;28;20663;-63
2023/09/29 11:25:29;;;;;;;1.00;1.00;;;;;;;29.95;29.86;99655.59;5086073;28;20213;-64
2023/09/29 11:27:57;;;;;;;0.90;0.90;;;;;;;30.06;34.30;99640.22;5089695;28;20217;-63
2023/09/29 11:30:25;;;;;;;0.90;0.90;;;;;;;30.21;33.58;99643.06;5089976;28;20206;-64
2023/09/29 11:32:52;;;;;;;0.75;0.75;;;;;;;30.23;29.53;99641.06;5089716;28;20238;-64
2023/09/29 11:35:21;;;;;;;0.70;0.70;;;;;;;30.30;31.12;99642.06;5089554;28;20598;-64